sensor_id;sensor_type;location;lat;lon;timestamp;temperature;humidity
54260;DHT22;40172;53.022;7.012;2024-03-22T00:01:11;9.20;99.90
54260;DHT22;40172;53.022;7.012;2024-03-22T00:03:36;9.30;99.90
54260;DHT22;40172;53.022;7.012;2024-03-22T00:06:02;9.30;99.90
54260;DHT22;40172;53.022;7.012;2024-03-22T00:08:28;9.30;99.90
54260;DHT22;40172;53.022;7.012;2024-03-22T00:10:54;9.30;99.90
54260;DHT22;40172;53.022;7.012;2024-03-22T00:13:19;9.30;99.90
54260;DHT22;40172;53.022;7.012;2024-03-22T00:15:45;9.30;99.90
54260;DHT22;40172;53.022;7.012;2024-03-22T00:18:11;9.30;99.90
54260;DHT22;40172;53.022;7.012;2024-03-22T00:20:36;9.30;99.90
54260;DHT22;40172;53.022;7.012;2024-03-22T00:23:02;9.30;99.90
54260;DHT22;40172;53.022;7.012;2024-03-22T00:25:28;9.30;99.90
54260;DHT22;40172;53.022;7.012;2024-03-22T00:27:55;9.30;99.90
54260;DHT22;40172;53.022;7.012;2024-03-22T00:30:21;9.30;99.90
54260;DHT22;40172;53.022;7.012;2024-03-22T00:32:46;9.30;99.90
54260;DHT22;40172;53.022;7.012;2024-03-22T00:35:12;9.40;99.90
54260;DHT22;40172;53.022;7.012;2024-03-22T00:37:38;9.40;99.90
54260;DHT22;40172;53.022;7.012;2024-03-22T00:40:05;9.40;99.90
54260;DHT22;40172;53.022;7.012;2024-03-22T00:42:30;9.40;99.90
54260;DHT22;40172;53.022;7.012;2024-03-22T00:44:56;9.40;99.90
54260;DHT22;40172;53.022;7.012;2024-03-22T00:47:23;9.40;99.90
54260;DHT22;40172;53.022;7.012;2024-03-22T00:49:49;9.50;99.90
54260;DHT22;40172;53.022;7.012;2024-03-22T00:52:14;9.50;99.90
54260;DHT22;40172;53.022;7.012;2024-03-22T00:54:40;9.50;99.90
54260;DHT22;40172;53.022;7.012;2024-03-22T00:57:06;9.50;99.90
54260;DHT22;40172;53.022;7.012;2024-03-22T00:59:32;9.50;99.90
54260;DHT22;40172;53.022;7.012;2024-03-22T01:01:58;9.50;99.90
54260;DHT22;40172;53.022;7.012;2024-03-22T01:04:23;9.50;99.90
54260;DHT22;40172;53.022;7.012;2024-03-22T01:06:49;9.50;99.90
54260;DHT22;40172;53.022;7.012;2024-03-22T01:09:15;9.50;99.90
54260;DHT22;40172;53.022;7.012;2024-03-22T01:11:40;9.50;99.90
54260;DHT22;40172;53.022;7.012;2024-03-22T01:14:06;9.50;99.90
54260;DHT22;40172;53.022;7.012;2024-03-22T01:16:32;9.50;99.90
54260;DHT22;40172;53.022;7.012;2024-03-22T01:18:57;9.50;99.90
54260;DHT22;40172;53.022;7.012;2024-03-22T01:21:23;9.60;99.90
54260;DHT22;40172;53.022;7.012;2024-03-22T01:23:53;9.60;99.90
54260;DHT22;40172;53.022;7.012;2024-03-22T01:26:19;9.60;99.90
54260;DHT22;40172;53.022;7.012;2024-03-22T01:28:46;9.60;99.90
54260;DHT22;40172;53.022;7.012;2024-03-22T01:31:11;9.60;99.90
54260;DHT22;40172;53.022;7.012;2024-03-22T01:33:37;9.60;99.90
54260;DHT22;40172;53.022;7.012;2024-03-22T01:36:03;9.60;99.90
54260;DHT22;40172;53.022;7.012;2024-03-22T01:38:31;9.60;99.90
54260;DHT22;40172;53.022;7.012;2024-03-22T01:40:56;9.70;99.90
54260;DHT22;40172;53.022;7.012;2024-03-22T01:43:22;9.70;99.90
54260;DHT22;40172;53.022;7.012;2024-03-22T01:45:48;9.70;99.90
54260;DHT22;40172;53.022;7.012;2024-03-22T01:48:14;9.70;99.90
54260;DHT22;40172;53.022;7.012;2024-03-22T01:50:40;9.80;99.90
54260;DHT22;40172;53.022;7.012;2024-03-22T01:53:06;9.80;99.90
54260;DHT22;40172;53.022;7.012;2024-03-22T01:55:32;9.80;99.90
54260;DHT22;40172;53.022;7.012;2024-03-22T01:57:58;9.80;99.90
54260;DHT22;40172;53.022;7.012;2024-03-22T02:00:24;9.90;99.90
54260;DHT22;40172;53.022;7.012;2024-03-22T02:02:50;9.90;99.90
54260;DHT22;40172;53.022;7.012;2024-03-22T02:05:17;9.90;99.90
54260;DHT22;40172;53.022;7.012;2024-03-22T02:07:47;9.90;99.90
54260;DHT22;40172;53.022;7.012;2024-03-22T02:10:13;10.00;99.90
54260;DHT22;40172;53.022;7.012;2024-03-22T02:12:39;9.90;99.90
54260;DHT22;40172;53.022;7.012;2024-03-22T02:15:06;9.90;99.90
54260;DHT22;40172;53.022;7.012;2024-03-22T02:17:35;9.90;99.90
54260;DHT22;40172;53.022;7.012;2024-03-22T02:20:01;10.00;99.90
54260;DHT22;40172;53.022;7.012;2024-03-22T02:22:28;10.00;99.90
54260;DHT22;40172;53.022;7.012;2024-03-22T02:24:54;10.00;99.90
54260;DHT22;40172;53.022;7.012;2024-03-22T02:27:19;10.00;99.90
54260;DHT22;40172;53.022;7.012;2024-03-22T02:29:45;10.00;99.90
54260;DHT22;40172;53.022;7.012;2024-03-22T02:32:11;10.00;99.90
54260;DHT22;40172;53.022;7.012;2024-03-22T02:34:36;10.00;99.90
54260;DHT22;40172;53.022;7.012;2024-03-22T02:37:02;10.00;99.90
54260;DHT22;40172;53.022;7.012;2024-03-22T02:39:28;10.10;99.90
54260;DHT22;40172;53.022;7.012;2024-03-22T02:41:54;10.10;99.90
54260;DHT22;40172;53.022;7.012;2024-03-22T02:44:20;10.10;99.90
54260;DHT22;40172;53.022;7.012;2024-03-22T02:46:46;10.10;99.90
54260;DHT22;40172;53.022;7.012;2024-03-22T02:49:12;10.10;99.90
54260;DHT22;40172;53.022;7.012;2024-03-22T02:51:38;10.10;99.90
54260;DHT22;40172;53.022;7.012;2024-03-22T02:54:04;10.20;99.90
54260;DHT22;40172;53.022;7.012;2024-03-22T02:56:30;10.20;99.90
54260;DHT22;40172;53.022;7.012;2024-03-22T02:58:55;10.20;99.90
54260;DHT22;40172;53.022;7.012;2024-03-22T03:01:21;10.20;99.90
54260;DHT22;40172;53.022;7.012;2024-03-22T03:03:46;10.20;99.90
54260;DHT22;40172;53.022;7.012;2024-03-22T03:06:12;10.20;99.90
54260;DHT22;40172;53.022;7.012;2024-03-22T03:08:39;10.20;99.90
54260;DHT22;40172;53.022;7.012;2024-03-22T03:11:05;10.20;99.90
54260;DHT22;40172;53.022;7.012;2024-03-22T03:13:30;10.20;99.90
54260;DHT22;40172;53.022;7.012;2024-03-22T03:15:57;10.20;99.90
54260;DHT22;40172;53.022;7.012;2024-03-22T03:18:23;10.20;99.90
54260;DHT22;40172;53.022;7.012;2024-03-22T03:20:49;10.20;99.90
54260;DHT22;40172;53.022;7.012;2024-03-22T03:23:14;10.20;99.90
54260;DHT22;40172;53.022;7.012;2024-03-22T03:25:40;10.20;99.90
54260;DHT22;40172;53.022;7.012;2024-03-22T03:28:06;10.20;99.90
54260;DHT22;40172;53.022;7.012;2024-03-22T03:30:34;10.20;99.90
54260;DHT22;40172;53.022;7.012;2024-03-22T03:33:00;10.20;99.90
54260;DHT22;40172;53.022;7.012;2024-03-22T03:35:26;10.20;99.90
54260;DHT22;40172;53.022;7.012;2024-03-22T03:37:52;10.20;99.90
54260;DHT22;40172;53.022;7.012;2024-03-22T03:40:18;10.20;99.90
54260;DHT22;40172;53.022;7.012;2024-03-22T03:42:44;10.20;99.90
54260;DHT22;40172;53.022;7.012;2024-03-22T03:45:09;10.20;99.90
54260;DHT22;40172;53.022;7.012;2024-03-22T03:47:35;10.20;99.90
54260;DHT22;40172;53.022;7.012;2024-03-22T03:50:01;10.20;99.90
54260;DHT22;40172;53.022;7.012;2024-03-22T03:52:27;10.20;99.90
54260;DHT22;40172;53.022;7.012;2024-03-22T03:54:53;10.20;99.90
54260;DHT22;40172;53.022;7.012;2024-03-22T03:57:19;10.20;99.90
54260;DHT22;40172;53.022;7.012;2024-03-22T03:59:44;10.20;99.90
54260;DHT22;40172;53.022;7.012;2024-03-22T04:02:10;10.20;99.90
54260;DHT22;40172;53.022;7.012;2024-03-22T04:04:36;10.20;99.90
54260;DHT22;40172;53.022;7.012;2024-03-22T04:07:02;10.20;99.90
54260;DHT22;40172;53.022;7.012;2024-03-22T04:09:28;10.20;99.90
54260;DHT22;40172;53.022;7.012;2024-03-22T04:11:54;10.20;99.90
54260;DHT22;40172;53.022;7.012;2024-03-22T04:14:19;10.20;99.90
54260;DHT22;40172;53.022;7.012;2024-03-22T04:16:45;10.20;99.90
54260;DHT22;40172;53.022;7.012;2024-03-22T04:19:11;10.20;99.90
54260;DHT22;40172;53.022;7.012;2024-03-22T04:21:36;10.20;99.90
54260;DHT22;40172;53.022;7.012;2024-03-22T04:24:02;10.20;99.90
54260;DHT22;40172;53.022;7.012;2024-03-22T04:26:27;10.20;99.90
54260;DHT22;40172;53.022;7.012;2024-03-22T04:28:53;10.20;99.90
54260;DHT22;40172;53.022;7.012;2024-03-22T04:31:19;10.20;99.90
54260;DHT22;40172;53.022;7.012;2024-03-22T04:33:44;10.20;99.90
54260;DHT22;40172;53.022;7.012;2024-03-22T04:36:10;10.30;99.90
54260;DHT22;40172;53.022;7.012;2024-03-22T04:38:36;10.20;99.90
54260;DHT22;40172;53.022;7.012;2024-03-22T04:41:02;10.20;99.90
54260;DHT22;40172;53.022;7.012;2024-03-22T04:43:28;10.30;99.90
54260;DHT22;40172;53.022;7.012;2024-03-22T04:45:53;10.30;99.90
54260;DHT22;40172;53.022;7.012;2024-03-22T04:48:20;10.30;99.90
54260;DHT22;40172;53.022;7.012;2024-03-22T04:50:47;10.30;99.90
54260;DHT22;40172;53.022;7.012;2024-03-22T04:53:16;10.30;99.90
54260;DHT22;40172;53.022;7.012;2024-03-22T04:55:43;10.40;99.90
54260;DHT22;40172;53.022;7.012;2024-03-22T04:58:18;10.40;99.90
54260;DHT22;40172;53.022;7.012;2024-03-22T05:00:45;10.40;99.90
54260;DHT22;40172;53.022;7.012;2024-03-22T05:03:11;10.50;99.90
54260;DHT22;40172;53.022;7.012;2024-03-22T05:05:37;10.50;99.90
54260;DHT22;40172;53.022;7.012;2024-03-22T05:08:03;10.50;99.90
54260;DHT22;40172;53.022;7.012;2024-03-22T05:10:30;10.50;99.90
54260;DHT22;40172;53.022;7.012;2024-03-22T05:12:59;10.50;99.90
54260;DHT22;40172;53.022;7.012;2024-03-22T05:15:25;10.50;99.90
54260;DHT22;40172;53.022;7.012;2024-03-22T05:17:51;10.50;99.90
54260;DHT22;40172;53.022;7.012;2024-03-22T05:20:17;10.50;99.90
54260;DHT22;40172;53.022;7.012;2024-03-22T05:22:42;10.50;99.90
54260;DHT22;40172;53.022;7.012;2024-03-22T05:25:08;10.50;99.90
54260;DHT22;40172;53.022;7.012;2024-03-22T05:27:35;10.50;99.90
54260;DHT22;40172;53.022;7.012;2024-03-22T05:30:01;10.50;99.90
54260;DHT22;40172;53.022;7.012;2024-03-22T05:32:26;10.50;99.90
54260;DHT22;40172;53.022;7.012;2024-03-22T05:34:52;10.50;99.90
54260;DHT22;40172;53.022;7.012;2024-03-22T05:37:18;10.50;99.90
54260;DHT22;40172;53.022;7.012;2024-03-22T05:39:44;10.50;99.90
54260;DHT22;40172;53.022;7.012;2024-03-22T05:42:10;10.50;99.90
54260;DHT22;40172;53.022;7.012;2024-03-22T05:44:35;10.50;99.90
54260;DHT22;40172;53.022;7.012;2024-03-22T05:47:01;10.50;99.90
54260;DHT22;40172;53.022;7.012;2024-03-22T05:49:27;10.50;99.90
54260;DHT22;40172;53.022;7.012;2024-03-22T05:51:56;10.40;99.90
54260;DHT22;40172;53.022;7.012;2024-03-22T05:54:21;10.40;99.90
54260;DHT22;40172;53.022;7.012;2024-03-22T05:56:47;10.40;99.90
54260;DHT22;40172;53.022;7.012;2024-03-22T05:59:13;10.40;99.90
54260;DHT22;40172;53.022;7.012;2024-03-22T06:01:38;10.40;99.90
54260;DHT22;40172;53.022;7.012;2024-03-22T06:04:05;10.40;99.90
54260;DHT22;40172;53.022;7.012;2024-03-22T06:06:34;10.40;99.90
54260;DHT22;40172;53.022;7.012;2024-03-22T06:09:00;10.30;99.90
54260;DHT22;40172;53.022;7.012;2024-03-22T06:11:32;10.30;99.90
54260;DHT22;40172;53.022;7.012;2024-03-22T06:13:58;10.30;99.90
54260;DHT22;40172;53.022;7.012;2024-03-22T06:16:23;10.30;99.90
54260;DHT22;40172;53.022;7.012;2024-03-22T06:18:49;10.20;99.90
54260;DHT22;40172;53.022;7.012;2024-03-22T06:21:15;10.20;99.90
54260;DHT22;40172;53.022;7.012;2024-03-22T06:23:41;10.20;99.90
54260;DHT22;40172;53.022;7.012;2024-03-22T06:26:09;10.30;99.90
54260;DHT22;40172;53.022;7.012;2024-03-22T06:28:35;10.20;99.90
54260;DHT22;40172;53.022;7.012;2024-03-22T06:31:01;10.20;99.90
54260;DHT22;40172;53.022;7.012;2024-03-22T06:33:27;10.20;99.90
54260;DHT22;40172;53.022;7.012;2024-03-22T06:35:52;10.20;99.90
54260;DHT22;40172;53.022;7.012;2024-03-22T06:38:18;10.20;99.90
54260;DHT22;40172;53.022;7.012;2024-03-22T06:40:45;10.20;99.90
54260;DHT22;40172;53.022;7.012;2024-03-22T06:43:10;10.20;99.90
54260;DHT22;40172;53.022;7.012;2024-03-22T06:45:36;10.20;99.90
54260;DHT22;40172;53.022;7.012;2024-03-22T06:48:02;10.10;99.90
54260;DHT22;40172;53.022;7.012;2024-03-22T06:50:28;10.20;99.90
54260;DHT22;40172;53.022;7.012;2024-03-22T06:52:54;10.10;99.90
54260;DHT22;40172;53.022;7.012;2024-03-22T06:55:20;10.10;99.90
54260;DHT22;40172;53.022;7.012;2024-03-22T06:57:47;10.10;99.90
54260;DHT22;40172;53.022;7.012;2024-03-22T07:00:13;10.10;99.90
54260;DHT22;40172;53.022;7.012;2024-03-22T07:02:39;10.10;99.90
54260;DHT22;40172;53.022;7.012;2024-03-22T07:05:07;10.10;99.90
54260;DHT22;40172;53.022;7.012;2024-03-22T07:07:33;10.10;99.90
54260;DHT22;40172;53.022;7.012;2024-03-22T07:09:59;10.20;99.90
54260;DHT22;40172;53.022;7.012;2024-03-22T07:12:24;10.10;99.90
54260;DHT22;40172;53.022;7.012;2024-03-22T07:14:50;10.20;99.90
54260;DHT22;40172;53.022;7.012;2024-03-22T07:17:16;10.10;99.90
54260;DHT22;40172;53.022;7.012;2024-03-22T07:19:42;10.10;99.90
54260;DHT22;40172;53.022;7.012;2024-03-22T07:22:08;10.20;99.90
54260;DHT22;40172;53.022;7.012;2024-03-22T07:24:34;10.20;99.90
54260;DHT22;40172;53.022;7.012;2024-03-22T07:26:59;10.20;99.90
54260;DHT22;40172;53.022;7.012;2024-03-22T07:29:25;10.20;99.90
54260;DHT22;40172;53.022;7.012;2024-03-22T07:31:51;10.20;99.90
54260;DHT22;40172;53.022;7.012;2024-03-22T07:34:16;10.20;99.90
54260;DHT22;40172;53.022;7.012;2024-03-22T07:36:42;10.30;99.90
54260;DHT22;40172;53.022;7.012;2024-03-22T07:39:08;10.30;99.90
54260;DHT22;40172;53.022;7.012;2024-03-22T07:41:34;10.30;99.90
54260;DHT22;40172;53.022;7.012;2024-03-22T07:44:00;10.30;99.90
54260;DHT22;40172;53.022;7.012;2024-03-22T07:46:26;10.30;99.90
54260;DHT22;40172;53.022;7.012;2024-03-22T07:48:52;10.30;99.90
54260;DHT22;40172;53.022;7.012;2024-03-22T07:51:19;10.30;99.90
54260;DHT22;40172;53.022;7.012;2024-03-22T07:53:45;10.30;99.90
54260;DHT22;40172;53.022;7.012;2024-03-22T07:56:11;10.30;99.90
54260;DHT22;40172;53.022;7.012;2024-03-22T07:58:38;10.30;99.90
54260;DHT22;40172;53.022;7.012;2024-03-22T08:01:04;10.30;99.90
54260;DHT22;40172;53.022;7.012;2024-03-22T08:03:30;10.30;99.90
54260;DHT22;40172;53.022;7.012;2024-03-22T08:05:55;10.30;99.90
54260;DHT22;40172;53.022;7.012;2024-03-22T08:08:21;10.30;99.90
54260;DHT22;40172;53.022;7.012;2024-03-22T08:10:47;10.30;99.90
54260;DHT22;40172;53.022;7.012;2024-03-22T08:13:13;10.30;99.90
54260;DHT22;40172;53.022;7.012;2024-03-22T08:15:39;10.30;99.90
54260;DHT22;40172;53.022;7.012;2024-03-22T08:18:05;10.30;99.90
54260;DHT22;40172;53.022;7.012;2024-03-22T08:20:31;10.30;99.90
54260;DHT22;40172;53.022;7.012;2024-03-22T08:22:59;10.30;99.90
54260;DHT22;40172;53.022;7.012;2024-03-22T08:25:25;10.30;99.90
54260;DHT22;40172;53.022;7.012;2024-03-22T08:27:50;10.30;99.90
54260;DHT22;40172;53.022;7.012;2024-03-22T08:30:21;10.30;99.90
54260;DHT22;40172;53.022;7.012;2024-03-22T08:32:46;10.20;99.90
54260;DHT22;40172;53.022;7.012;2024-03-22T08:35:12;10.20;99.90
54260;DHT22;40172;53.022;7.012;2024-03-22T08:37:38;10.10;99.90
54260;DHT22;40172;53.022;7.012;2024-03-22T08:40:03;10.10;99.90
54260;DHT22;40172;53.022;7.012;2024-03-22T08:42:30;10.10;99.90
54260;DHT22;40172;53.022;7.012;2024-03-22T08:44:55;10.10;99.90
54260;DHT22;40172;53.022;7.012;2024-03-22T08:47:21;10.10;99.90
54260;DHT22;40172;53.022;7.012;2024-03-22T08:49:47;10.10;99.90
54260;DHT22;40172;53.022;7.012;2024-03-22T08:52:12;10.10;99.90
54260;DHT22;40172;53.022;7.012;2024-03-22T08:54:38;10.10;99.90
54260;DHT22;40172;53.022;7.012;2024-03-22T08:57:04;10.10;99.90
54260;DHT22;40172;53.022;7.012;2024-03-22T08:59:29;10.10;99.90
54260;DHT22;40172;53.022;7.012;2024-03-22T09:01:55;10.20;99.90
54260;DHT22;40172;53.022;7.012;2024-03-22T09:04:21;10.20;99.90
54260;DHT22;40172;53.022;7.012;2024-03-22T09:06:46;10.20;99.90
54260;DHT22;40172;53.022;7.012;2024-03-22T09:09:12;10.20;99.90
54260;DHT22;40172;53.022;7.012;2024-03-22T09:11:38;10.20;99.90
54260;DHT22;40172;53.022;7.012;2024-03-22T09:14:03;10.10;99.90
54260;DHT22;40172;53.022;7.012;2024-03-22T09:16:29;10.10;99.90
54260;DHT22;40172;53.022;7.012;2024-03-22T09:18:56;10.20;99.90
54260;DHT22;40172;53.022;7.012;2024-03-22T09:21:21;10.10;99.90
54260;DHT22;40172;53.022;7.012;2024-03-22T09:23:47;10.10;99.90
54260;DHT22;40172;53.022;7.012;2024-03-22T09:26:13;10.10;99.90
54260;DHT22;40172;53.022;7.012;2024-03-22T09:28:39;10.10;99.90
54260;DHT22;40172;53.022;7.012;2024-03-22T09:31:06;10.20;99.90
54260;DHT22;40172;53.022;7.012;2024-03-22T09:33:35;10.20;99.90
54260;DHT22;40172;53.022;7.012;2024-03-22T09:36:02;10.20;99.90
54260;DHT22;40172;53.022;7.012;2024-03-22T09:38:27;10.10;99.90
54260;DHT22;40172;53.022;7.012;2024-03-22T09:40:54;10.10;99.90
54260;DHT22;40172;53.022;7.012;2024-03-22T09:43:21;10.20;99.90
54260;DHT22;40172;53.022;7.012;2024-03-22T09:45:47;10.20;99.90
54260;DHT22;40172;53.022;7.012;2024-03-22T09:48:18;10.20;99.90
54260;DHT22;40172;53.022;7.012;2024-03-22T09:50:48;10.20;99.90
54260;DHT22;40172;53.022;7.012;2024-03-22T09:53:18;10.20;99.90
54260;DHT22;40172;53.022;7.012;2024-03-22T09:55:45;10.20;99.90
54260;DHT22;40172;53.022;7.012;2024-03-22T09:58:11;10.20;99.90
54260;DHT22;40172;53.022;7.012;2024-03-22T10:00:36;10.20;99.90
54260;DHT22;40172;53.022;7.012;2024-03-22T10:03:04;10.20;99.90
54260;DHT22;40172;53.022;7.012;2024-03-22T10:05:31;10.20;99.90
54260;DHT22;40172;53.022;7.012;2024-03-22T10:07:56;10.20;99.90
54260;DHT22;40172;53.022;7.012;2024-03-22T10:10:23;10.20;99.90
54260;DHT22;40172;53.022;7.012;2024-03-22T10:12:49;10.10;99.90
54260;DHT22;40172;53.022;7.012;2024-03-22T10:15:14;10.10;99.90
54260;DHT22;40172;53.022;7.012;2024-03-22T10:17:41;10.10;99.90
54260;DHT22;40172;53.022;7.012;2024-03-22T10:20:07;10.20;99.90
54260;DHT22;40172;53.022;7.012;2024-03-22T10:23:00;10.20;99.90
54260;DHT22;40172;53.022;7.012;2024-03-22T10:25:26;10.20;99.90
54260;DHT22;40172;53.022;7.012;2024-03-22T10:27:56;10.20;99.90
54260;DHT22;40172;53.022;7.012;2024-03-22T10:30:23;10.30;99.90
54260;DHT22;40172;53.022;7.012;2024-03-22T10:32:49;10.20;99.90
54260;DHT22;40172;53.022;7.012;2024-03-22T10:35:15;10.20;99.90
54260;DHT22;40172;53.022;7.012;2024-03-22T10:37:42;10.20;99.90
54260;DHT22;40172;53.022;7.012;2024-03-22T10:40:09;10.20;99.90
54260;DHT22;40172;53.022;7.012;2024-03-22T10:42:39;10.20;99.90
54260;DHT22;40172;53.022;7.012;2024-03-22T10:45:07;10.20;99.90
54260;DHT22;40172;53.022;7.012;2024-03-22T10:47:34;10.20;99.90
54260;DHT22;40172;53.022;7.012;2024-03-22T10:52:34;10.20;99.90
54260;DHT22;40172;53.022;7.012;2024-03-22T10:55:02;10.20;99.90
54260;DHT22;40172;53.022;7.012;2024-03-22T10:57:30;10.10;99.90
54260;DHT22;40172;53.022;7.012;2024-03-22T10:59:56;10.20;99.90
54260;DHT22;40172;53.022;7.012;2024-03-22T11:02:24;10.20;99.90
54260;DHT22;40172;53.022;7.012;2024-03-22T11:04:59;10.20;99.90
54260;DHT22;40172;53.022;7.012;2024-03-22T11:07:29;10.20;99.90
54260;DHT22;40172;53.022;7.012;2024-03-22T11:10:01;10.20;99.90
54260;DHT22;40172;53.022;7.012;2024-03-22T11:12:29;10.20;99.90
54260;DHT22;40172;53.022;7.012;2024-03-22T11:14:58;10.30;99.90
54260;DHT22;40172;53.022;7.012;2024-03-22T11:17:24;10.30;99.90
54260;DHT22;40172;53.022;7.012;2024-03-22T11:19:51;10.40;99.90
54260;DHT22;40172;53.022;7.012;2024-03-22T11:22:17;10.40;99.90
54260;DHT22;40172;53.022;7.012;2024-03-22T11:24:43;10.50;99.90
54260;DHT22;40172;53.022;7.012;2024-03-22T11:27:09;10.50;99.90
54260;DHT22;40172;53.022;7.012;2024-03-22T11:29:37;10.50;99.90
54260;DHT22;40172;53.022;7.012;2024-03-22T11:32:06;10.60;99.90
54260;DHT22;40172;53.022;7.012;2024-03-22T11:34:35;10.60;99.90
54260;DHT22;40172;53.022;7.012;2024-03-22T11:37:01;10.50;99.90
54260;DHT22;40172;53.022;7.012;2024-03-22T11:39:27;10.40;99.90
54260;DHT22;40172;53.022;7.012;2024-03-22T11:41:52;10.30;99.90
54260;DHT22;40172;53.022;7.012;2024-03-22T11:44:18;10.30;99.90
54260;DHT22;40172;53.022;7.012;2024-03-22T11:46:45;10.30;99.90
54260;DHT22;40172;53.022;7.012;2024-03-22T11:49:11;10.30;99.90
54260;DHT22;40172;53.022;7.012;2024-03-22T11:51:37;10.40;99.90
54260;DHT22;40172;53.022;7.012;2024-03-22T11:54:03;10.40;99.90
54260;DHT22;40172;53.022;7.012;2024-03-22T11:56:29;10.40;99.90
54260;DHT22;40172;53.022;7.012;2024-03-22T11:59:01;10.40;99.90
54260;DHT22;40172;53.022;7.012;2024-03-22T12:01:29;10.40;99.90
54260;DHT22;40172;53.022;7.012;2024-03-22T12:03:55;10.50;99.90
54260;DHT22;40172;53.022;7.012;2024-03-22T12:06:21;10.50;99.90
54260;DHT22;40172;53.022;7.012;2024-03-22T12:08:47;10.60;99.90
54260;DHT22;40172;53.022;7.012;2024-03-22T12:11:13;10.60;99.90
54260;DHT22;40172;53.022;7.012;2024-03-22T12:13:39;10.60;99.90
54260;DHT22;40172;53.022;7.012;2024-03-22T12:16:05;10.50;99.90
54260;DHT22;40172;53.022;7.012;2024-03-22T12:18:32;10.50;99.90
54260;DHT22;40172;53.022;7.012;2024-03-22T12:20:58;10.50;99.90
54260;DHT22;40172;53.022;7.012;2024-03-22T12:23:24;10.40;99.90
54260;DHT22;40172;53.022;7.012;2024-03-22T12:25:50;10.40;99.90
54260;DHT22;40172;53.022;7.012;2024-03-22T12:28:17;10.50;99.90
54260;DHT22;40172;53.022;7.012;2024-03-22T12:30:43;10.40;99.90
54260;DHT22;40172;53.022;7.012;2024-03-22T12:33:09;10.40;99.90
54260;DHT22;40172;53.022;7.012;2024-03-22T12:35:38;10.50;99.90
54260;DHT22;40172;53.022;7.012;2024-03-22T12:38:03;10.60;99.90
54260;DHT22;40172;53.022;7.012;2024-03-22T12:40:29;10.60;99.90
54260;DHT22;40172;53.022;7.012;2024-03-22T12:42:56;10.60;99.90
54260;DHT22;40172;53.022;7.012;2024-03-22T12:45:21;10.50;99.90
54260;DHT22;40172;53.022;7.012;2024-03-22T12:47:47;10.40;99.90
54260;DHT22;40172;53.022;7.012;2024-03-22T12:50:13;10.40;99.90
54260;DHT22;40172;53.022;7.012;2024-03-22T12:52:39;10.30;99.90
54260;DHT22;40172;53.022;7.012;2024-03-22T12:55:05;10.30;99.90
54260;DHT22;40172;53.022;7.012;2024-03-22T12:57:32;10.30;99.90
54260;DHT22;40172;53.022;7.012;2024-03-22T12:59:57;10.30;99.90
54260;DHT22;40172;53.022;7.012;2024-03-22T13:02:24;10.30;99.90
54260;DHT22;40172;53.022;7.012;2024-03-22T13:04:52;10.30;99.90
54260;DHT22;40172;53.022;7.012;2024-03-22T13:07:19;10.30;99.90
54260;DHT22;40172;53.022;7.012;2024-03-22T13:09:45;10.20;99.90
54260;DHT22;40172;53.022;7.012;2024-03-22T13:12:10;10.10;99.90
54260;DHT22;40172;53.022;7.012;2024-03-22T13:14:36;10.10;99.90
54260;DHT22;40172;53.022;7.012;2024-03-22T13:17:02;10.00;99.90
54260;DHT22;40172;53.022;7.012;2024-03-22T13:19:27;10.00;99.90
54260;DHT22;40172;53.022;7.012;2024-03-22T13:21:53;10.00;99.90
54260;DHT22;40172;53.022;7.012;2024-03-22T13:24:19;10.00;99.90
54260;DHT22;40172;53.022;7.012;2024-03-22T13:26:44;10.00;99.90
54260;DHT22;40172;53.022;7.012;2024-03-22T13:29:10;10.10;99.90
54260;DHT22;40172;53.022;7.012;2024-03-22T13:31:38;10.10;99.90
54260;DHT22;40172;53.022;7.012;2024-03-22T13:34:03;10.10;99.90
54260;DHT22;40172;53.022;7.012;2024-03-22T13:36:29;10.10;99.90
54260;DHT22;40172;53.022;7.012;2024-03-22T13:38:58;10.20;99.90
54260;DHT22;40172;53.022;7.012;2024-03-22T13:41:24;10.20;99.90
54260;DHT22;40172;53.022;7.012;2024-03-22T13:43:49;10.30;99.90
54260;DHT22;40172;53.022;7.012;2024-03-22T13:46:15;10.30;99.90
54260;DHT22;40172;53.022;7.012;2024-03-22T13:48:42;10.30;99.90
54260;DHT22;40172;53.022;7.012;2024-03-22T13:51:08;10.30;99.90
54260;DHT22;40172;53.022;7.012;2024-03-22T13:53:34;10.30;99.90
54260;DHT22;40172;53.022;7.012;2024-03-22T13:56:00;10.30;99.90
54260;DHT22;40172;53.022;7.012;2024-03-22T13:58:26;10.30;99.90
54260;DHT22;40172;53.022;7.012;2024-03-22T14:00:53;10.30;99.90
54260;DHT22;40172;53.022;7.012;2024-03-22T14:03:18;10.30;99.90
54260;DHT22;40172;53.022;7.012;2024-03-22T14:05:44;10.20;99.90
54260;DHT22;40172;53.022;7.012;2024-03-22T14:08:10;10.30;99.90
54260;DHT22;40172;53.022;7.012;2024-03-22T14:10:36;10.30;99.90
54260;DHT22;40172;53.022;7.012;2024-03-22T14:13:02;10.20;99.90
54260;DHT22;40172;53.022;7.012;2024-03-22T14:15:29;10.20;99.90
54260;DHT22;40172;53.022;7.012;2024-03-22T14:17:57;10.10;99.90
54260;DHT22;40172;53.022;7.012;2024-03-22T14:20:23;10.10;99.90
54260;DHT22;40172;53.022;7.012;2024-03-22T14:22:50;10.10;99.90
54260;DHT22;40172;53.022;7.012;2024-03-22T14:25:17;10.10;99.90
54260;DHT22;40172;53.022;7.012;2024-03-22T14:27:43;10.10;99.90
54260;DHT22;40172;53.022;7.012;2024-03-22T14:30:12;10.10;99.90
54260;DHT22;40172;53.022;7.012;2024-03-22T14:32:39;10.10;99.90
54260;DHT22;40172;53.022;7.012;2024-03-22T14:35:05;10.10;99.90
54260;DHT22;40172;53.022;7.012;2024-03-22T14:37:31;10.10;99.90
54260;DHT22;40172;53.022;7.012;2024-03-22T14:39:57;10.10;99.90
54260;DHT22;40172;53.022;7.012;2024-03-22T14:42:23;10.10;99.90
54260;DHT22;40172;53.022;7.012;2024-03-22T14:44:48;10.10;99.90
54260;DHT22;40172;53.022;7.012;2024-03-22T14:47:14;10.00;99.90
54260;DHT22;40172;53.022;7.012;2024-03-22T14:49:39;10.00;99.90
54260;DHT22;40172;53.022;7.012;2024-03-22T14:52:06;10.00;99.90
54260;DHT22;40172;53.022;7.012;2024-03-22T14:54:32;9.90;99.90
54260;DHT22;40172;53.022;7.012;2024-03-22T14:56:58;10.00;99.90
54260;DHT22;40172;53.022;7.012;2024-03-22T14:59:27;10.00;99.90
54260;DHT22;40172;53.022;7.012;2024-03-22T15:01:53;10.00;99.90
54260;DHT22;40172;53.022;7.012;2024-03-22T15:04:19;10.10;99.90
54260;DHT22;40172;53.022;7.012;2024-03-22T15:06:45;10.10;99.90
54260;DHT22;40172;53.022;7.012;2024-03-22T15:09:14;10.10;99.90
54260;DHT22;40172;53.022;7.012;2024-03-22T15:11:39;10.10;99.90
54260;DHT22;40172;53.022;7.012;2024-03-22T15:14:05;10.00;99.90
54260;DHT22;40172;53.022;7.012;2024-03-22T15:16:31;10.00;99.90
54260;DHT22;40172;53.022;7.012;2024-03-22T15:18:57;10.00;99.90
54260;DHT22;40172;53.022;7.012;2024-03-22T15:21:22;10.00;99.90
54260;DHT22;40172;53.022;7.012;2024-03-22T15:23:48;10.00;99.90
54260;DHT22;40172;53.022;7.012;2024-03-22T15:26:14;10.00;99.90
54260;DHT22;40172;53.022;7.012;2024-03-22T15:28:40;10.00;99.90